createdAt,value
2023-01-25T00:01:51.548Z,26.17
2023-01-25T00:06:54.184Z,26.83
2023-01-25T00:11:58.178Z,27.33
2023-01-25T00:17:00.463Z,26.53
2023-01-25T00:22:02.764Z,26.90
2023-01-25T00:27:05.148Z,27.67
2023-01-25T00:32:27.563Z,26.20
2023-01-25T00:37:37.429Z,26.47
2023-01-25T00:42:40.086Z,26.87
2023-01-25T00:47:42.489Z,41.27
2023-01-25T00:52:45.466Z,29.97
2023-01-25T00:57:47.830Z,27.37
2023-01-25T01:02:50.622Z,27.20
2023-01-25T01:07:55.958Z,26.83
2023-01-25T01:12:58.419Z,25.50
2023-01-25T01:18:00.717Z,27.50
2023-01-25T01:23:03.290Z,29.57
2023-01-25T01:28:05.571Z,28.50
2023-01-25T01:33:08.788Z,26.30
2023-01-25T01:38:11.127Z,27.17
2023-01-25T01:43:19.353Z,33.70
2023-01-25T01:48:40.203Z,26.30
2023-01-25T01:53:57.939Z,26.13
2023-01-25T01:59:01.255Z,26.07
2023-01-25T02:04:07.097Z,27.20
2023-01-25T02:09:11.425Z,25.93
2023-01-25T02:14:15.492Z,27.73
2023-01-25T02:19:38.346Z,28.53
2023-01-25T02:24:50.798Z,30.50
2023-01-25T02:29:53.171Z,29.17
2023-01-25T02:34:55.610Z,32.73
2023-01-25T02:39:57.982Z,25.60
2023-01-25T02:45:03.274Z,24.03
2023-01-25T02:50:06.154Z,23.53
2023-01-25T02:55:09.517Z,22.70
2023-01-25T03:00:14.746Z,21.63
2023-01-25T03:05:17.663Z,21.53
2023-01-25T03:10:20.162Z,22.13
2023-01-25T03:15:23.803Z,18.33
2023-01-25T03:20:26.224Z,21.27
2023-01-25T03:25:28.829Z,19.87
2023-01-25T03:30:42.108Z,20.07
2023-01-25T03:35:44.456Z,16.93
2023-01-25T03:40:47.775Z,15.97
2023-01-25T03:45:55.391Z,16.00
2023-01-25T03:51:00.206Z,14.30
2023-01-25T03:56:09.830Z,15.67
2023-01-25T04:01:13.931Z,15.47
2023-01-25T04:06:16.314Z,15.53
2023-01-25T04:11:19.697Z,14.67
2023-01-25T04:16:24.064Z,15.30
2023-01-25T04:21:49.380Z,16.00
2023-01-25T04:26:53.635Z,16.77
2023-01-25T04:31:56.431Z,15.10
2023-01-25T04:36:59.546Z,16.53
2023-01-25T04:42:06.450Z,16.63
2023-01-25T04:47:09.235Z,15.27
2023-01-25T04:52:11.639Z,17.10
2023-01-25T04:57:14.515Z,16.37
2023-01-25T05:02:23.263Z,17.93
2023-01-25T05:07:25.812Z,17.10
2023-01-25T05:12:28.206Z,17.63
2023-01-25T05:17:35.614Z,17.13
2023-01-25T05:22:37.994Z,17.53
2023-01-25T05:27:40.355Z,16.80
2023-01-25T05:33:18.703Z,17.57
2023-01-25T05:38:21.358Z,16.57
2023-01-25T05:43:24.324Z,15.77
2023-01-25T05:48:26.961Z,15.40
2023-01-25T05:53:29.666Z,16.43
2023-01-25T05:58:32.671Z,12.10
2023-01-25T06:03:35.431Z,11.67
2023-01-25T06:08:38.408Z,12.50
2023-01-25T06:13:46.358Z,10.57
2023-01-25T06:18:49.574Z,9.00
2023-01-25T06:24:20.733Z,8.57
2023-01-25T06:29:23.037Z,7.63
2023-01-25T06:34:25.399Z,8.13
2023-01-25T06:39:29.760Z,6.37
2023-01-25T06:44:32.151Z,7.27
2023-01-25T06:49:34.462Z,5.30
2023-01-25T06:54:36.725Z,5.93
2023-01-25T06:59:39.064Z,6.67
2023-01-25T07:04:41.497Z,10.33
2023-01-25T07:09:44.668Z,11.17
2023-01-25T07:14:48.580Z,6.67
2023-01-25T07:19:50.958Z,6.30
2023-01-25T07:24:53.979Z,6.83
2023-01-25T07:29:56.409Z,6.17
2023-01-25T07:35:02.820Z,6.10
2023-01-25T07:40:05.589Z,9.80
2023-01-25T07:45:09.120Z,8.37
2023-01-25T07:50:11.851Z,29.37
2023-01-25T07:55:14.241Z,12.70
2023-01-25T08:00:16.988Z,9.97
2023-01-25T08:05:19.755Z,11.60
2023-01-25T08:10:22.741Z,8.53
2023-01-25T08:15:25.061Z,9.20
2023-01-25T08:20:27.553Z,9.60
2023-01-25T08:25:29.937Z,7.93
2023-01-25T08:30:32.363Z,8.93
2023-01-25T08:35:36.842Z,6.97
2023-01-25T08:40:39.288Z,9.10
2023-01-25T08:45:41.661Z,7.60
2023-01-25T08:50:47.452Z,14.10
2023-01-25T08:55:49.833Z,12.63
2023-01-25T09:00:52.137Z,37.00
2023-01-25T09:05:54.874Z,8.60
2023-01-25T09:11:02.894Z,7.13
2023-01-25T09:16:11.219Z,9.87
2023-01-25T09:21:16.560Z,12.10
2023-01-25T09:26:19.415Z,9.43
2023-01-25T09:31:24.042Z,14.40
2023-01-25T09:36:50.059Z,10.13
2023-01-25T09:42:20.479Z,10.50
2023-01-25T09:47:49.258Z,7.40
2023-01-25T09:53:12.991Z,11.20
2023-01-25T09:58:20.194Z,9.73
2023-01-25T10:03:53.600Z,11.37
2023-01-25T10:09:27.532Z,12.53
2023-01-25T10:14:35.645Z,15.77
2023-01-25T10:19:59.888Z,19.93
2023-01-25T10:25:24.176Z,14.03
2023-01-25T10:30:28.294Z,10.70
2023-01-25T10:35:41.245Z,10.40
2023-01-25T10:40:52.600Z,17.73
2023-01-25T10:45:54.978Z,15.30
2023-01-25T10:50:57.985Z,12.77
2023-01-25T10:56:09.733Z,12.33
2023-01-25T11:01:28.924Z,15.67
2023-01-25T11:06:38.010Z,14.10
2023-01-25T11:11:41.473Z,22.07
2023-01-25T11:16:50.469Z,17.23
2023-01-25T11:21:54.908Z,10.10
2023-01-25T11:27:21.495Z,17.83
2023-01-25T11:32:25.285Z,14.80
2023-01-25T11:37:58.593Z,14.43
2023-01-25T11:43:30.269Z,19.07
2023-01-25T11:48:47.769Z,14.10
2023-01-25T11:54:00.454Z,13.60
2023-01-25T11:59:37.042Z,19.03
2023-01-25T12:05:09.689Z,10.10
2023-01-25T12:10:34.266Z,41.67
2023-01-25T12:16:02.447Z,15.17
2023-01-25T12:21:22.952Z,10.57
2023-01-25T12:26:49.064Z,13.57
2023-01-25T12:32:07.218Z,11.57
2023-01-25T12:37:21.622Z,11.00
2023-01-25T12:42:36.588Z,13.97
2023-01-25T12:47:55.399Z,15.30
2023-01-25T12:53:16.592Z,15.67
2023-01-25T12:58:36.953Z,24.07
2023-01-25T13:04:04.213Z,23.37
2023-01-25T13:09:24.992Z,16.83
2023-01-25T13:14:37.052Z,10.87
2023-01-25T13:19:42.751Z,14.47
2023-01-25T13:25:03.974Z,14.00
2023-01-25T13:30:31.199Z,17.70
2023-01-25T13:35:41.640Z,12.87
2023-01-25T13:40:44.138Z,13.00
2023-01-25T13:45:50.586Z,23.87
2023-01-25T13:50:59.407Z,24.80
2023-01-25T13:56:02.868Z,22.10
2023-01-25T14:01:13.232Z,22.00
2023-01-25T14:06:31.076Z,14.93
2023-01-25T14:11:36.633Z,24.80
2023-01-25T14:16:39.381Z,13.97
2023-01-25T14:21:41.957Z,13.27
2023-01-25T14:26:47.409Z,13.13
2023-01-25T14:31:51.756Z,16.10
2023-01-25T14:37:26.378Z,15.30
2023-01-25T14:42:28.818Z,15.50
2023-01-25T14:47:32.516Z,16.67
2023-01-25T14:52:35.390Z,16.27
2023-01-25T14:57:40.697Z,15.37
2023-01-25T15:02:55.122Z,22.80
2023-01-25T15:08:13.177Z,17.50
2023-01-25T15:13:15.721Z,19.60
2023-01-25T15:18:46.040Z,15.83
2023-01-25T15:23:49.845Z,14.17
2023-01-25T15:29:04.357Z,14.70
2023-01-25T15:34:06.805Z,15.67
2023-01-25T15:39:17.480Z,14.83
2023-01-25T15:44:20.497Z,21.83
2023-01-25T15:49:28.645Z,16.63
2023-01-25T15:54:30.942Z,14.30
2023-01-25T15:59:33.465Z,47.90
2023-01-25T16:04:37.868Z,15.07
2023-01-25T16:09:40.340Z,20.03
2023-01-25T16:14:42.802Z,24.53
2023-01-25T16:19:47.940Z,21.33
2023-01-25T16:24:50.653Z,26.47
2023-01-25T16:29:53.380Z,20.53
2023-01-25T16:34:55.694Z,18.70
2023-01-25T16:39:58.282Z,16.20
2023-01-25T16:45:00.615Z,17.90
2023-01-25T16:50:02.957Z,22.83
2023-01-25T16:55:05.604Z,18.33
2023-01-25T17:00:11.014Z,28.43
2023-01-25T17:05:13.520Z,27.87
2023-01-25T17:10:16.174Z,18.87
2023-01-25T17:15:20.482Z,26.30
2023-01-25T17:20:22.855Z,21.70
2023-01-25T17:25:25.860Z,18.73
2023-01-25T17:30:28.222Z,23.83
2023-01-25T17:35:30.550Z,20.20
2023-01-25T17:40:35.575Z,18.83
2023-01-25T17:45:40.852Z,17.77
2023-01-25T17:50:43.210Z,18.97
2023-01-25T17:55:45.537Z,20.23
2023-01-25T18:00:47.877Z,32.40
2023-01-25T18:05:50.972Z,22.90
2023-01-25T18:10:53.323Z,24.63
2023-01-25T18:15:55.975Z,43.13
2023-01-25T18:21:07.764Z,27.90
2023-01-25T18:26:18.666Z,37.27
2023-01-25T18:31:21.573Z,28.00
2023-01-25T18:36:24.044Z,44.67
2023-01-25T18:41:26.422Z,22.57
2023-01-25T18:46:28.860Z,21.33
2023-01-25T18:51:31.232Z,21.77
2023-01-25T18:56:33.536Z,22.93
2023-01-25T19:01:35.916Z,34.07
2023-01-25T19:06:38.291Z,30.20
2023-01-25T19:11:40.593Z,37.97
2023-01-25T19:16:42.924Z,36.43
2023-01-25T19:21:45.235Z,35.70
2023-01-25T19:26:48.201Z,36.33
2023-01-25T19:31:50.622Z,36.03
2023-01-25T19:36:53.895Z,34.67
2023-01-25T19:41:56.352Z,39.70
2023-01-25T19:46:58.762Z,42.93
2023-01-25T19:52:01.139Z,49.97
2023-01-25T19:57:03.423Z,36.77
2023-01-25T20:02:06.222Z,37.33
2023-01-25T20:07:08.605Z,31.47
2023-01-25T20:12:10.936Z,27.50
2023-01-25T20:17:14.170Z,112.63
2023-01-25T20:22:16.499Z,33.87
2023-01-25T20:27:19.692Z,29.23
2023-01-25T20:32:32.476Z,31.73
2023-01-25T20:37:35.593Z,32.37
2023-01-25T20:42:37.967Z,30.90
2023-01-25T20:47:40.292Z,32.20
2023-01-25T20:52:42.639Z,48.13
2023-01-25T20:57:45.146Z,62.17
2023-01-25T21:02:47.422Z,49.70
2023-01-25T21:07:49.701Z,49.10
2023-01-25T21:12:52.106Z,41.77
2023-01-25T21:17:54.537Z,44.40
2023-01-25T21:22:56.854Z,38.33
2023-01-25T21:27:59.263Z,31.83
2023-01-25T21:33:01.588Z,40.40
2023-01-25T21:38:03.994Z,30.43
2023-01-25T21:43:06.932Z,30.87
2023-01-25T21:48:09.362Z,31.50
2023-01-25T21:53:11.707Z,33.87
2023-01-25T21:58:14.389Z,34.27
2023-01-25T22:03:16.739Z,44.37
2023-01-25T22:08:20.081Z,33.83
2023-01-25T22:13:22.390Z,34.90
2023-01-25T22:18:24.722Z,33.87
2023-01-25T22:23:28.775Z,34.77
2023-01-25T22:28:34.858Z,34.77
2023-01-25T22:33:37.134Z,33.37
2023-01-25T22:38:39.540Z,38.37
2023-01-25T22:43:42.230Z,31.63
2023-01-25T22:48:45.299Z,31.90
2023-01-25T22:53:47.853Z,31.17
2023-01-25T22:58:51.127Z,30.63
2023-01-25T23:03:53.989Z,29.63
2023-01-25T23:08:59.769Z,31.00
2023-01-25T23:14:21.545Z,29.57
2023-01-25T23:19:26.367Z,30.77
2023-01-25T23:24:28.781Z,30.87
2023-01-25T23:29:31.416Z,35.97
2023-01-25T23:34:37.088Z,30.87
2023-01-25T23:39:39.422Z,30.03
2023-01-25T23:44:42.041Z,40.63
2023-01-25T23:49:44.394Z,32.47
2023-01-25T23:54:46.690Z,32.07
2023-01-25T23:59:49.158Z,29.70
